createdAt,value
2023-03-02T00:01:00.307Z,8.25
2023-03-02T00:03:28.891Z,9.07
2023-03-02T00:05:57.501Z,9.70
2023-03-02T00:08:25.216Z,11.73
2023-03-02T00:10:55.110Z,7.20
2023-03-02T00:13:22.675Z,6.65
2023-03-02T00:15:50.722Z,7.32
2023-03-02T00:18:18.228Z,4.50
2023-03-02T00:20:45.847Z,8.98
2023-03-02T00:23:14.438Z,10.07
2023-03-02T00:25:42.064Z,9.35
2023-03-02T00:28:09.697Z,14.07
2023-03-02T00:30:39.428Z,8.85
2023-03-02T00:33:07.207Z,8.50
2023-03-02T00:35:41.661Z,8.52
2023-03-02T00:38:09.990Z,13.40
2023-03-02T00:40:37.844Z,13.40
2023-03-02T00:43:05.420Z,7.93
2023-03-02T00:45:35.437Z,10.43
2023-03-02T00:48:03.646Z,10.10
2023-03-02T00:50:31.470Z,11.88
2023-03-02T00:52:59.403Z,9.40
2023-03-02T00:55:26.954Z,10.50
2023-03-02T00:57:57.322Z,9.23
2023-03-02T01:00:25.076Z,10.05
2023-03-02T01:02:53.340Z,8.93
2023-03-02T01:05:21.005Z,6.45
2023-03-02T01:07:48.739Z,6.20
2023-03-02T01:10:17.310Z,7.90
2023-03-02T01:12:46.678Z,11.07
2023-03-02T01:15:14.422Z,9.43
2023-03-02T01:17:43.620Z,8.45
2023-03-02T01:20:11.959Z,8.90
2023-03-02T01:22:39.781Z,7.53
2023-03-02T01:25:07.513Z,14.00
2023-03-02T01:27:35.126Z,16.98
2023-03-02T01:30:02.610Z,22.58
2023-03-02T01:32:30.259Z,13.63
2023-03-02T01:35:00.926Z,15.18
2023-03-02T01:37:28.474Z,12.80
2023-03-02T01:39:56.078Z,15.45
2023-03-02T01:42:23.691Z,9.75
2023-03-02T01:44:52.498Z,11.30
2023-03-02T01:47:26.702Z,12.82
2023-03-02T01:49:58.408Z,14.75
2023-03-02T01:52:30.500Z,8.95
2023-03-02T01:54:59.707Z,10.63
2023-03-02T01:57:30.300Z,12.80
2023-03-02T02:00:00.459Z,13.02
2023-03-02T02:02:28.105Z,12.95
2023-03-02T02:04:56.847Z,7.60
2023-03-02T02:07:24.487Z,8.75
2023-03-02T02:09:53.347Z,11.02
2023-03-02T02:12:22.279Z,10.68
2023-03-02T02:14:53.282Z,5.28
2023-03-02T02:17:20.804Z,11.07
2023-03-02T02:19:55.773Z,8.80
2023-03-02T02:22:38.322Z,11.40
2023-03-02T02:25:12.605Z,6.77
2023-03-02T02:27:40.124Z,9.57
2023-03-02T02:30:08.881Z,8.85
2023-03-02T02:32:38.728Z,6.90
2023-03-02T02:35:12.145Z,9.95
2023-03-02T02:40:10.943Z,11.35
2023-03-02T02:42:40.858Z,8.10
2023-03-02T02:45:18.386Z,10.85
2023-03-02T02:47:46.141Z,8.95
2023-03-02T02:50:21.513Z,10.23
2023-03-02T02:52:55.303Z,9.07
2023-03-02T02:55:24.326Z,11.60
2023-03-02T02:57:53.686Z,15.88
2023-03-02T03:00:22.154Z,9.15
2023-03-02T03:02:56.490Z,8.40
2023-03-02T03:05:24.022Z,9.32
2023-03-02T03:07:51.533Z,11.73
2023-03-02T03:10:30.121Z,6.97
2023-03-02T03:12:57.680Z,7.25
2023-03-02T03:15:25.249Z,10.65
2023-03-02T03:17:56.947Z,10.00
2023-03-02T03:20:25.472Z,11.20
2023-03-02T03:22:55.931Z,7.28
2023-03-02T03:25:26.296Z,8.85
2023-03-02T03:27:54.481Z,6.65
2023-03-02T03:30:24.187Z,9.60
2023-03-02T03:32:51.903Z,7.80
2023-03-02T03:35:19.554Z,10.13
2023-03-02T03:37:49.084Z,8.43
2023-03-02T03:40:16.610Z,9.55
2023-03-02T03:42:44.125Z,8.55
2023-03-02T03:45:11.749Z,10.10
2023-03-02T03:47:39.336Z,9.25
2023-03-02T03:50:06.938Z,10.88
2023-03-02T03:52:34.500Z,13.15
2023-03-02T03:55:02.359Z,7.32
2023-03-02T03:57:30.096Z,13.65
2023-03-02T03:59:57.627Z,11.45
2023-03-02T04:02:25.522Z,11.15
2023-03-02T04:04:53.161Z,8.43
2023-03-02T04:07:20.755Z,9.80
2023-03-02T04:09:48.954Z,8.98
2023-03-02T04:12:16.455Z,9.25
2023-03-02T04:14:43.996Z,7.90
2023-03-02T04:17:11.549Z,9.45
2023-03-02T04:19:39.066Z,11.00
2023-03-02T04:22:06.690Z,9.48
2023-03-02T04:24:34.166Z,13.45
2023-03-02T04:27:01.693Z,12.20
2023-03-02T04:29:29.445Z,9.40
2023-03-02T04:31:57.025Z,14.15
2023-03-02T04:34:26.169Z,10.45
2023-03-02T04:36:53.802Z,8.40
2023-03-02T04:39:21.286Z,10.13
2023-03-02T04:41:48.937Z,12.23
2023-03-02T04:44:17.074Z,12.70
2023-03-02T04:46:45.063Z,12.02
2023-03-02T04:49:13.177Z,15.75
2023-03-02T04:51:41.817Z,9.27
2023-03-02T04:54:14.096Z,12.77
2023-03-02T04:56:41.676Z,15.43
2023-03-02T04:59:09.430Z,13.13
2023-03-02T05:01:36.937Z,14.85
2023-03-02T05:04:05.112Z,13.88
2023-03-02T05:06:33.668Z,12.27
2023-03-02T05:09:01.450Z,13.85
2023-03-02T05:11:29.264Z,13.85
2023-03-02T05:13:59.027Z,12.02
2023-03-02T05:16:27.481Z,10.02
2023-03-02T05:18:54.974Z,10.55
2023-03-02T05:21:22.518Z,13.73
2023-03-02T05:23:50.099Z,13.90
2023-03-02T05:26:17.983Z,10.90
2023-03-02T05:28:48.368Z,12.48
2023-03-02T05:31:20.613Z,10.02
2023-03-02T05:33:48.558Z,19.83
2023-03-02T05:36:31.415Z,15.27
2023-03-02T05:38:59.189Z,12.60
2023-03-02T05:41:27.086Z,14.95
2023-03-02T05:43:54.683Z,14.63
2023-03-02T05:46:22.589Z,14.57
2023-03-02T05:48:50.142Z,16.05
2023-03-02T05:51:17.699Z,12.25
2023-03-02T05:53:45.987Z,16.10
2023-03-02T05:56:13.513Z,14.85
2023-03-02T05:58:41.027Z,15.68
2023-03-02T06:01:10.189Z,17.05
2023-03-02T06:03:37.671Z,10.80
2023-03-02T06:06:05.452Z,9.65
2023-03-02T06:08:35.972Z,16.92
2023-03-02T06:11:04.237Z,11.02
2023-03-02T06:13:31.767Z,9.55
2023-03-02T06:15:59.349Z,16.30
2023-03-02T06:18:26.913Z,17.75
2023-03-02T06:20:54.419Z,18.70
2023-03-02T06:23:22.009Z,13.10
2023-03-02T06:25:49.910Z,19.08
2023-03-02T06:28:19.865Z,11.63
2023-03-02T06:30:49.625Z,11.60
2023-03-02T06:33:18.715Z,16.85
2023-03-02T06:35:46.772Z,16.20
2023-03-02T06:38:14.462Z,12.38
2023-03-02T06:40:41.901Z,11.25
2023-03-02T06:43:12.469Z,14.55
2023-03-02T06:45:40.394Z,16.17
2023-03-02T06:48:08.305Z,14.20
2023-03-02T06:50:35.807Z,14.82
2023-03-02T06:53:03.497Z,13.70
2023-03-02T06:55:31.235Z,12.40
2023-03-02T06:57:58.837Z,17.90
2023-03-02T07:00:28.730Z,13.40
2023-03-02T07:02:57.000Z,18.35
2023-03-02T07:05:27.030Z,13.55
2023-03-02T07:07:54.886Z,17.05
2023-03-02T07:10:22.432Z,20.38
2023-03-02T07:12:49.987Z,13.88
2023-03-02T07:15:18.197Z,15.10
2023-03-02T07:17:46.352Z,15.98
2023-03-02T07:20:15.032Z,14.75
2023-03-02T07:22:42.835Z,19.48
2023-03-02T07:25:11.364Z,10.52
2023-03-02T07:27:38.945Z,13.65
2023-03-02T07:30:07.206Z,15.43
2023-03-02T07:32:34.842Z,15.45
2023-03-02T07:35:05.192Z,16.88
2023-03-02T07:37:32.778Z,11.15
2023-03-02T07:40:00.950Z,23.08
2023-03-02T07:42:28.673Z,14.20
2023-03-02T07:44:59.163Z,18.50
2023-03-02T07:47:26.702Z,20.20
2023-03-02T07:49:54.276Z,16.38
2023-03-02T07:52:21.802Z,12.75
2023-03-02T07:54:49.636Z,15.20
2023-03-02T07:57:18.778Z,18.30
2023-03-02T07:59:47.002Z,11.00
2023-03-02T08:02:15.966Z,15.90
2023-03-02T08:04:43.924Z,19.20
2023-03-02T08:07:11.494Z,13.77
2023-03-02T08:09:42.431Z,16.10
2023-03-02T08:12:10.832Z,20.35
2023-03-02T08:14:39.423Z,23.63
2023-03-02T08:17:07.521Z,17.50
2023-03-02T08:19:35.163Z,19.00
2023-03-02T08:22:02.992Z,18.27
2023-03-02T08:24:30.627Z,20.95
2023-03-02T08:27:00.689Z,18.80
2023-03-02T08:29:28.507Z,16.98
2023-03-02T08:31:56.240Z,17.50
2023-03-02T08:34:23.958Z,18.13
2023-03-02T08:36:51.555Z,15.68
2023-03-02T08:39:19.332Z,19.05
2023-03-02T08:41:46.911Z,20.00
2023-03-02T08:44:14.444Z,19.75
2023-03-02T08:46:41.939Z,16.77
2023-03-02T08:49:09.519Z,28.77
2023-03-02T08:51:37.033Z,38.83
2023-03-02T08:54:05.441Z,33.85
2023-03-02T08:56:34.528Z,44.00
2023-03-02T08:59:04.091Z,70.50
2023-03-02T09:01:33.801Z,46.83
2023-03-02T09:04:01.958Z,27.95
2023-03-02T09:06:30.312Z,55.28
2023-03-02T09:08:58.458Z,59.03
2023-03-02T09:11:26.480Z,33.58
2023-03-02T09:13:55.510Z,43.42
2023-03-02T09:16:24.949Z,54.17
2023-03-02T09:18:52.768Z,66.57
2023-03-02T09:21:20.723Z,29.63
2023-03-02T09:23:48.339Z,34.47
2023-03-02T09:26:15.987Z,31.48
2023-03-02T09:28:43.561Z,18.80
2023-03-02T09:31:12.148Z,27.65
2023-03-02T09:33:39.842Z,28.77
2023-03-02T09:36:08.346Z,22.63
2023-03-02T09:38:35.870Z,16.95
2023-03-02T09:41:03.391Z,29.27
2023-03-02T09:43:39.149Z,39.38
2023-03-02T09:46:13.871Z,31.13
2023-03-02T09:48:41.420Z,19.80
2023-03-02T09:51:16.436Z,20.92
2023-03-02T09:53:48.373Z,16.35
2023-03-02T09:56:17.542Z,16.85
2023-03-02T09:58:49.469Z,17.23
2023-03-02T10:01:18.474Z,13.35
2023-03-02T10:03:49.033Z,12.68
2023-03-02T10:06:16.640Z,14.52
2023-03-02T10:08:44.430Z,14.10
2023-03-02T10:11:22.362Z,14.00
2023-03-02T10:14:14.751Z,11.20
2023-03-02T10:16:46.503Z,18.23
2023-03-02T10:19:20.245Z,13.73
2023-03-02T10:21:50.403Z,19.70
2023-03-02T10:24:25.901Z,17.80
2023-03-02T10:26:55.557Z,13.93
2023-03-02T10:29:38.537Z,18.63
2023-03-02T10:32:15.783Z,18.73
2023-03-02T10:34:43.555Z,19.75
2023-03-02T10:37:14.084Z,22.65
2023-03-02T10:39:41.721Z,16.50
2023-03-02T10:42:14.360Z,21.25
2023-03-02T10:44:43.032Z,19.98
2023-03-02T10:47:20.322Z,19.30
2023-03-02T10:49:49.161Z,13.02
2023-03-02T10:52:17.956Z,18.17
2023-03-02T10:54:45.887Z,16.85
2023-03-02T10:57:35.993Z,23.15
2023-03-02T11:00:06.526Z,17.63
2023-03-02T11:02:35.658Z,11.10
2023-03-02T11:05:18.562Z,19.88
2023-03-02T11:08:12.406Z,18.35
2023-03-02T11:13:21.272Z,15.55
2023-03-02T11:15:50.033Z,20.98
2023-03-02T11:18:17.684Z,17.60
2023-03-02T11:20:47.553Z,18.55
2023-03-02T11:23:24.951Z,10.40
2023-03-02T11:25:57.594Z,11.60
2023-03-02T11:28:37.451Z,17.05
2023-03-02T11:31:09.435Z,19.92
2023-03-02T11:33:57.944Z,15.98
2023-03-02T11:36:48.763Z,15.80
2023-03-02T11:39:18.752Z,15.57
2023-03-02T11:41:46.604Z,15.63
2023-03-02T11:44:18.502Z,13.18
2023-03-02T11:46:47.852Z,12.52
2023-03-02T11:49:37.002Z,14.25
2023-03-02T11:52:04.692Z,21.75
2023-03-02T11:54:33.483Z,21.98
2023-03-02T11:57:02.740Z,19.92
2023-03-02T11:59:31.084Z,19.33
2023-03-02T12:02:00.511Z,26.17
2023-03-02T12:04:33.283Z,20.50
2023-03-02T12:07:02.625Z,20.15
2023-03-02T12:09:34.555Z,16.65
2023-03-02T12:12:20.303Z,17.92
2023-03-02T12:14:47.859Z,10.93
2023-03-02T12:17:27.675Z,20.73
2023-03-02T12:20:23.700Z,16.17
2023-03-02T12:22:51.725Z,17.75
2023-03-02T12:25:21.947Z,20.20
2023-03-02T12:27:50.833Z,16.20
2023-03-02T12:30:24.095Z,16.17
2023-03-02T12:35:19.511Z,14.48
2023-03-02T12:37:54.178Z,18.27
2023-03-02T12:40:40.331Z,18.48
2023-03-02T12:43:11.044Z,16.77
2023-03-02T12:45:45.280Z,15.40
2023-03-02T12:48:32.850Z,12.65
2023-03-02T12:51:01.860Z,22.63
2023-03-02T12:53:30.013Z,17.05
2023-03-02T12:55:58.011Z,14.07
2023-03-02T12:58:29.756Z,22.67
2023-03-02T13:01:00.923Z,17.88
2023-03-02T13:03:30.044Z,20.98
2023-03-02T13:06:05.278Z,13.82
2023-03-02T13:08:34.214Z,18.25
2023-03-02T13:11:03.521Z,21.17
2023-03-02T13:13:41.921Z,23.52
2023-03-02T13:16:26.595Z,18.48
2023-03-02T13:18:57.584Z,21.05
2023-03-02T13:21:44.058Z,19.50
2023-03-02T13:24:40.714Z,27.77
2023-03-02T13:27:08.988Z,26.23
2023-03-02T13:29:36.578Z,26.48
2023-03-02T13:32:22.936Z,25.30
2023-03-02T13:34:58.359Z,25.85
2023-03-02T13:37:41.186Z,28.08
2023-03-02T13:40:30.767Z,42.58
2023-03-02T13:42:58.367Z,50.13
2023-03-02T13:45:27.247Z,28.90
2023-03-02T13:47:55.581Z,44.10
2023-03-02T13:50:25.124Z,42.75
2023-03-02T13:52:53.143Z,41.97
2023-03-02T13:55:21.789Z,47.03
2023-03-02T13:57:50.497Z,25.92
2023-03-02T14:00:38.889Z,44.85
2023-03-02T14:03:14.775Z,33.58
2023-03-02T14:05:42.426Z,22.02
2023-03-02T14:08:10.619Z,23.83
2023-03-02T14:10:39.704Z,25.63
2023-03-02T14:13:09.195Z,21.70
2023-03-02T14:15:42.704Z,19.83
2023-03-02T14:18:25.326Z,18.25
2023-03-02T14:20:53.654Z,16.67
2023-03-02T14:23:21.166Z,13.85
2023-03-02T14:25:48.980Z,21.35
2023-03-02T14:28:21.820Z,12.88
2023-03-02T14:30:49.994Z,18.85
2023-03-02T14:33:20.891Z,14.93
2023-03-02T14:35:48.899Z,16.67
2023-03-02T14:38:16.589Z,15.80
2023-03-02T14:40:44.182Z,18.48
2023-03-02T14:43:11.721Z,12.45
2023-03-02T14:45:39.256Z,17.55
2023-03-02T14:48:06.872Z,15.77
2023-03-02T14:50:37.972Z,18.17
2023-03-02T14:53:07.192Z,13.70
2023-03-02T14:55:35.182Z,26.88
2023-03-02T14:58:02.729Z,20.20
2023-03-02T15:00:30.466Z,16.13
2023-03-02T15:03:01.050Z,13.30
2023-03-02T15:05:28.680Z,14.68
2023-03-02T15:07:58.756Z,15.18
2023-03-02T15:10:26.726Z,17.50
2023-03-02T15:12:54.964Z,18.52
2023-03-02T15:15:25.844Z,22.83
2023-03-02T15:17:56.052Z,16.45
2023-03-02T15:20:23.528Z,18.17
2023-03-02T15:22:51.066Z,18.73
2023-03-02T15:25:18.694Z,22.75
2023-03-02T15:27:47.045Z,19.13
2023-03-02T15:30:15.621Z,21.02
2023-03-02T15:32:43.286Z,16.85
2023-03-02T15:35:11.331Z,15.32
2023-03-02T15:37:39.202Z,20.58
2023-03-02T15:40:07.322Z,21.60
2023-03-02T15:42:35.001Z,17.42
2023-03-02T15:45:02.525Z,23.30
2023-03-02T15:47:30.021Z,13.82
2023-03-02T15:49:57.628Z,18.45
2023-03-02T15:52:25.267Z,21.17
2023-03-02T15:54:52.837Z,19.40
2023-03-02T15:57:20.419Z,15.80
2023-03-02T15:59:48.190Z,16.30
2023-03-02T16:02:16.437Z,22.48
2023-03-02T16:04:44.173Z,18.20
2023-03-02T16:07:11.802Z,19.50
2023-03-02T16:09:39.642Z,21.27
2023-03-02T16:12:07.475Z,28.92
2023-03-02T16:14:35.197Z,20.58
2023-03-02T16:17:02.782Z,23.90
2023-03-02T16:19:30.862Z,18.88
2023-03-02T16:21:58.528Z,20.75
2023-03-02T16:24:26.378Z,17.95
2023-03-02T16:26:54.267Z,24.10
2023-03-02T16:29:22.186Z,27.58
2023-03-02T16:31:49.980Z,25.83
2023-03-02T16:34:18.261Z,20.98
2023-03-02T16:36:46.166Z,18.33
2023-03-02T16:39:14.542Z,16.88
2023-03-02T16:41:46.912Z,24.65
2023-03-02T16:44:15.321Z,64.65
2023-03-02T16:46:44.046Z,19.70
2023-03-02T16:49:15.515Z,22.40
2023-03-02T16:51:43.430Z,30.73
2023-03-02T16:54:11.519Z,20.80
2023-03-02T16:56:45.823Z,28.20
2023-03-02T16:59:13.370Z,20.88
2023-03-02T17:01:41.330Z,22.80
2023-03-02T17:04:09.099Z,20.13
2023-03-02T17:06:36.744Z,18.60
2023-03-02T17:09:04.434Z,22.23
2023-03-02T17:11:33.296Z,21.60
2023-03-02T17:14:00.837Z,17.85
2023-03-02T17:16:30.881Z,20.45
2023-03-02T17:18:59.058Z,43.28
2023-03-02T17:21:27.377Z,18.13
2023-03-02T17:23:54.931Z,22.52
2023-03-02T17:26:22.621Z,25.00
2023-03-02T17:28:50.299Z,20.70
2023-03-02T17:31:17.851Z,21.77
2023-03-02T17:33:45.398Z,19.33
2023-03-02T17:36:13.258Z,23.02
2023-03-02T17:38:41.189Z,17.90
2023-03-02T17:41:09.912Z,36.17
2023-03-02T17:43:41.034Z,13.48
2023-03-02T17:46:13.114Z,19.30
2023-03-02T17:48:40.956Z,14.25
2023-03-02T17:51:08.485Z,16.15
2023-03-02T17:53:36.124Z,15.30
2023-03-02T17:56:03.659Z,27.27
2023-03-02T17:58:44.214Z,20.25
2023-03-02T18:01:13.488Z,14.98
2023-03-02T18:03:41.146Z,35.95
2023-03-02T18:06:08.782Z,24.40
2023-03-02T18:08:37.649Z,23.00
2023-03-02T18:11:05.940Z,14.50
2023-03-02T18:13:33.925Z,18.48
2023-03-02T18:16:01.473Z,16.17
2023-03-02T18:18:28.978Z,19.30
2023-03-02T18:20:56.466Z,15.55
2023-03-02T18:23:24.188Z,17.17
2023-03-02T18:25:51.728Z,14.07
2023-03-02T18:28:19.621Z,18.15
2023-03-02T18:30:47.232Z,10.75
2023-03-02T18:33:14.721Z,15.52
2023-03-02T18:35:42.783Z,21.20
2023-03-02T18:38:10.265Z,16.30
2023-03-02T18:40:37.882Z,20.42
2023-03-02T18:43:05.367Z,14.13
2023-03-02T18:45:34.220Z,9.05
2023-03-02T18:48:02.459Z,12.68
2023-03-02T18:50:30.496Z,15.55
2023-03-02T18:52:58.090Z,15.25
2023-03-02T18:55:26.329Z,7.18
2023-03-02T18:57:56.576Z,10.55
2023-03-02T19:00:27.928Z,19.85
2023-03-02T19:02:55.971Z,10.50
2023-03-02T19:05:25.858Z,11.52
2023-03-02T19:07:58.225Z,24.10
2023-03-02T19:10:25.812Z,13.48
2023-03-02T19:12:53.483Z,12.25
2023-03-02T19:15:21.175Z,10.95
2023-03-02T19:17:49.819Z,15.63
2023-03-02T19:20:17.543Z,14.63
2023-03-02T19:22:45.569Z,11.45
2023-03-02T19:25:13.119Z,13.43
2023-03-02T19:27:41.185Z,18.83
2023-03-02T19:30:09.786Z,22.77
2023-03-02T19:32:38.266Z,21.73
2023-03-02T19:35:06.231Z,18.02
2023-03-02T19:37:34.241Z,7.95
2023-03-02T19:40:01.817Z,11.48
2023-03-02T19:42:31.100Z,11.15
2023-03-02T19:44:58.804Z,11.93
2023-03-02T19:47:30.601Z,19.45
2023-03-02T19:49:58.085Z,9.63
2023-03-02T19:52:26.746Z,11.43
2023-03-02T19:54:54.317Z,13.48
2023-03-02T19:57:21.830Z,11.50
2023-03-02T19:59:49.345Z,9.60
2023-03-02T20:02:17.267Z,25.98
2023-03-02T20:04:45.756Z,19.73
2023-03-02T20:07:14.028Z,9.07
2023-03-02T20:09:43.332Z,19.70
2023-03-02T20:12:12.319Z,10.73
2023-03-02T20:14:42.134Z,10.05
2023-03-02T20:17:09.620Z,12.48
2023-03-02T20:19:37.317Z,10.68
2023-03-02T20:22:07.648Z,9.65
2023-03-02T20:24:35.109Z,9.75
2023-03-02T20:27:03.940Z,17.70
2023-03-02T20:29:31.491Z,9.50
2023-03-02T20:31:59.765Z,9.35
2023-03-02T20:34:27.314Z,11.18
2023-03-02T20:36:54.923Z,10.65
2023-03-02T20:39:30.787Z,10.88
2023-03-02T20:42:01.459Z,12.18
2023-03-02T20:44:31.848Z,12.07
2023-03-02T20:47:01.241Z,14.32
2023-03-02T20:49:29.705Z,15.50
2023-03-02T20:51:58.650Z,9.35
2023-03-02T20:54:28.286Z,17.33
2023-03-02T20:56:56.007Z,18.30
2023-03-02T20:59:23.668Z,17.27
2023-03-02T21:01:52.759Z,24.40
2023-03-02T21:04:20.423Z,25.98
2023-03-02T21:06:48.436Z,17.75
2023-03-02T21:09:16.076Z,15.20
2023-03-02T21:11:43.622Z,23.05
2023-03-02T21:14:15.397Z,16.02
2023-03-02T21:16:44.440Z,10.10
2023-03-02T21:19:14.722Z,14.25
2023-03-02T21:21:43.080Z,15.25
2023-03-02T21:24:11.916Z,19.10
2023-03-02T21:26:39.884Z,16.38
2023-03-02T21:29:09.076Z,32.15
2023-03-02T21:31:36.716Z,16.98
2023-03-02T21:34:04.363Z,36.17
2023-03-02T21:36:34.253Z,33.63
2023-03-02T21:39:02.567Z,8.57
2023-03-02T21:41:30.054Z,30.00
2023-03-02T21:43:58.420Z,16.60
2023-03-02T21:46:26.017Z,15.95
2023-03-02T21:48:53.961Z,39.42
2023-03-02T21:51:21.763Z,20.20
2023-03-02T21:53:53.890Z,47.58
2023-03-02T21:56:23.115Z,18.73
2023-03-02T21:58:51.203Z,8.27
2023-03-02T22:01:19.558Z,4.90
2023-03-02T22:03:47.233Z,20.02
2023-03-02T22:06:19.543Z,12.93
2023-03-02T22:08:47.275Z,9.23
2023-03-02T22:11:21.172Z,30.73
2023-03-02T22:13:49.372Z,7.55
2023-03-02T22:16:21.213Z,6.85
2023-03-02T22:18:50.161Z,6.88
2023-03-02T22:21:37.900Z,12.70
2023-03-02T22:24:11.823Z,15.48
2023-03-02T22:26:50.332Z,5.60
2023-03-02T22:29:21.752Z,12.68
2023-03-02T22:31:56.089Z,13.45
2023-03-02T22:34:27.928Z,8.05
2023-03-02T22:37:11.833Z,6.25
2023-03-02T22:39:41.963Z,12.68
2023-03-02T22:42:15.915Z,10.30
2023-03-02T22:44:45.881Z,3.65
2023-03-02T22:47:19.225Z,7.18
2023-03-02T22:49:47.388Z,5.07
2023-03-02T22:52:19.835Z,6.75
2023-03-02T22:54:47.696Z,7.65
2023-03-02T22:57:27.045Z,2.80
2023-03-02T23:00:03.355Z,7.28
2023-03-02T23:02:31.154Z,12.38
2023-03-02T23:04:59.289Z,11.77
2023-03-02T23:07:29.669Z,3.35
2023-03-02T23:09:59.911Z,16.42
2023-03-02T23:12:28.318Z,8.98
2023-03-02T23:15:02.885Z,7.20
2023-03-02T23:17:40.992Z,6.82
2023-03-02T23:20:13.381Z,4.18
2023-03-02T23:22:40.889Z,7.25
2023-03-02T23:25:09.403Z,2.63
2023-03-02T23:27:36.977Z,3.67
2023-03-02T23:30:04.940Z,8.13
2023-03-02T23:32:32.526Z,6.95
2023-03-02T23:35:00.156Z,4.88
2023-03-02T23:37:28.346Z,10.02
2023-03-02T23:39:55.872Z,4.55
2023-03-02T23:42:23.476Z,8.75
2023-03-02T23:44:51.046Z,3.80
2023-03-02T23:47:18.588Z,5.30
2023-03-02T23:49:48.710Z,1.23
2023-03-02T23:52:16.390Z,9.07
2023-03-02T23:54:46.935Z,14.20
2023-03-02T23:57:14.681Z,3.05
2023-03-02T23:59:42.413Z,4.97
